sensor_id;sensor_type;location;lat;lon;timestamp;P1;durP1;ratioP1;P2;durP2;ratioP2
46723;SDS011;32463;48.298;11.620;2023-04-03T00:00:35;8.68;;;4.75;;
46723;SDS011;32463;48.298;11.620;2023-04-03T00:03:02;7.57;;;4.60;;
46723;SDS011;32463;48.298;11.620;2023-04-03T00:05:28;10.95;;;5.00;;
46723;SDS011;32463;48.298;11.620;2023-04-03T00:07:55;8.30;;;4.80;;
46723;SDS011;32463;48.298;11.620;2023-04-03T00:10:21;8.57;;;4.90;;
46723;SDS011;32463;48.298;11.620;2023-04-03T00:12:48;6.32;;;4.25;;
46723;SDS011;32463;48.298;11.620;2023-04-03T00:15:14;7.70;;;4.72;;
46723;SDS011;32463;48.298;11.620;2023-04-03T00:17:41;8.55;;;5.18;;
46723;SDS011;32463;48.298;11.620;2023-04-03T00:20:08;5.93;;;4.38;;
46723;SDS011;32463;48.298;11.620;2023-04-03T00:22:35;11.48;;;4.25;;
46723;SDS011;32463;48.298;11.620;2023-04-03T00:25:01;7.40;;;5.00;;
46723;SDS011;32463;48.298;11.620;2023-04-03T00:27:28;7.55;;;4.45;;
46723;SDS011;32463;48.298;11.620;2023-04-03T00:29:54;7.97;;;4.25;;
46723;SDS011;32463;48.298;11.620;2023-04-03T00:32:21;7.88;;;4.13;;
46723;SDS011;32463;48.298;11.620;2023-04-03T00:34:47;6.97;;;4.25;;
46723;SDS011;32463;48.298;11.620;2023-04-03T00:37:14;8.27;;;4.20;;
46723;SDS011;32463;48.298;11.620;2023-04-03T00:39:41;6.97;;;4.22;;
46723;SDS011;32463;48.298;11.620;2023-04-03T00:42:10;5.82;;;4.10;;
46723;SDS011;32463;48.298;11.620;2023-04-03T00:47:04;5.70;;;4.10;;
46723;SDS011;32463;48.298;11.620;2023-04-03T00:49:33;6.60;;;4.07;;
46723;SDS011;32463;48.298;11.620;2023-04-03T00:52:00;5.68;;;4.20;;
46723;SDS011;32463;48.298;11.620;2023-04-03T00:54:27;6.20;;;4.00;;
46723;SDS011;32463;48.298;11.620;2023-04-03T00:56:54;5.90;;;4.20;;
46723;SDS011;32463;48.298;11.620;2023-04-03T00:59:24;6.38;;;4.38;;
46723;SDS011;32463;48.298;11.620;2023-04-03T01:01:57;7.00;;;4.63;;
46723;SDS011;32463;48.298;11.620;2023-04-03T01:04:35;7.82;;;4.00;;
46723;SDS011;32463;48.298;11.620;2023-04-03T01:07:07;5.93;;;4.10;;
46723;SDS011;32463;48.298;11.620;2023-04-03T01:09:42;7.60;;;4.40;;
46723;SDS011;32463;48.298;11.620;2023-04-03T01:12:18;9.40;;;3.85;;
46723;SDS011;32463;48.298;11.620;2023-04-03T01:14:48;5.75;;;3.83;;
46723;SDS011;32463;48.298;11.620;2023-04-03T01:17:36;6.30;;;3.83;;
46723;SDS011;32463;48.298;11.620;2023-04-03T01:20:14;11.43;;;4.10;;
46723;SDS011;32463;48.298;11.620;2023-04-03T01:25:39;6.05;;;3.63;;
46723;SDS011;32463;48.298;11.620;2023-04-03T01:28:13;8.88;;;3.90;;
46723;SDS011;32463;48.298;11.620;2023-04-03T01:30:51;5.35;;;3.60;;
46723;SDS011;32463;48.298;11.620;2023-04-03T01:33:26;6.38;;;3.22;;
46723;SDS011;32463;48.298;11.620;2023-04-03T01:35:53;6.05;;;3.45;;
46723;SDS011;32463;48.298;11.620;2023-04-03T01:38:19;7.05;;;3.50;;
46723;SDS011;32463;48.298;11.620;2023-04-03T01:40:46;4.40;;;3.38;;
46723;SDS011;32463;48.298;11.620;2023-04-03T01:43:12;6.38;;;3.20;;
46723;SDS011;32463;48.298;11.620;2023-04-03T01:45:38;5.40;;;3.08;;
46723;SDS011;32463;48.298;11.620;2023-04-03T01:48:05;5.15;;;3.20;;
46723;SDS011;32463;48.298;11.620;2023-04-03T01:50:31;6.28;;;3.10;;
46723;SDS011;32463;48.298;11.620;2023-04-03T01:52:58;6.07;;;4.00;;
46723;SDS011;32463;48.298;11.620;2023-04-03T01:55:24;6.43;;;2.92;;
46723;SDS011;32463;48.298;11.620;2023-04-03T01:57:51;4.32;;;3.03;;
46723;SDS011;32463;48.298;11.620;2023-04-03T02:00:18;4.15;;;2.97;;
46723;SDS011;32463;48.298;11.620;2023-04-03T02:02:44;5.15;;;2.95;;
46723;SDS011;32463;48.298;11.620;2023-04-03T02:05:11;7.53;;;2.70;;
46723;SDS011;32463;48.298;11.620;2023-04-03T02:07:38;5.07;;;2.95;;
46723;SDS011;32463;48.298;11.620;2023-04-03T02:10:04;4.03;;;2.90;;
46723;SDS011;32463;48.298;11.620;2023-04-03T02:12:31;6.18;;;3.05;;
46723;SDS011;32463;48.298;11.620;2023-04-03T02:14:59;4.80;;;2.97;;
46723;SDS011;32463;48.298;11.620;2023-04-03T02:17:26;4.38;;;2.70;;
46723;SDS011;32463;48.298;11.620;2023-04-03T02:19:53;4.68;;;2.88;;
46723;SDS011;32463;48.298;11.620;2023-04-03T02:22:24;4.25;;;2.88;;
46723;SDS011;32463;48.298;11.620;2023-04-03T02:24:51;6.47;;;2.85;;
46723;SDS011;32463;48.298;11.620;2023-04-03T02:27:18;4.15;;;2.70;;
46723;SDS011;32463;48.298;11.620;2023-04-03T02:29:44;4.70;;;3.20;;
46723;SDS011;32463;48.298;11.620;2023-04-03T02:32:11;5.82;;;3.05;;
46723;SDS011;32463;48.298;11.620;2023-04-03T02:34:37;4.22;;;2.85;;
46723;SDS011;32463;48.298;11.620;2023-04-03T02:37:04;4.47;;;3.20;;
46723;SDS011;32463;48.298;11.620;2023-04-03T02:39:31;4.00;;;2.88;;
46723;SDS011;32463;48.298;11.620;2023-04-03T02:41:58;9.27;;;2.92;;
46723;SDS011;32463;48.298;11.620;2023-04-03T02:44:25;6.00;;;2.72;;
46723;SDS011;32463;48.298;11.620;2023-04-03T02:46:51;4.47;;;2.92;;
46723;SDS011;32463;48.298;11.620;2023-04-03T02:49:18;5.22;;;2.92;;
46723;SDS011;32463;48.298;11.620;2023-04-03T02:51:44;5.50;;;3.40;;
46723;SDS011;32463;48.298;11.620;2023-04-03T02:54:11;4.28;;;2.90;;
46723;SDS011;32463;48.298;11.620;2023-04-03T02:56:37;5.07;;;3.10;;
46723;SDS011;32463;48.298;11.620;2023-04-03T02:59:04;5.18;;;3.10;;
46723;SDS011;32463;48.298;11.620;2023-04-03T03:01:31;5.10;;;3.00;;
46723;SDS011;32463;48.298;11.620;2023-04-03T03:03:58;5.88;;;3.30;;
46723;SDS011;32463;48.298;11.620;2023-04-03T03:06:25;7.20;;;3.40;;
46723;SDS011;32463;48.298;11.620;2023-04-03T03:08:52;4.55;;;2.97;;
46723;SDS011;32463;48.298;11.620;2023-04-03T03:11:19;4.63;;;3.00;;
46723;SDS011;32463;48.298;11.620;2023-04-03T03:13:46;5.63;;;3.17;;
46723;SDS011;32463;48.298;11.620;2023-04-03T03:16:12;5.40;;;3.05;;
46723;SDS011;32463;48.298;11.620;2023-04-03T03:18:39;4.05;;;2.75;;
46723;SDS011;32463;48.298;11.620;2023-04-03T03:21:05;5.25;;;3.05;;
46723;SDS011;32463;48.298;11.620;2023-04-03T03:23:32;4.30;;;3.08;;
46723;SDS011;32463;48.298;11.620;2023-04-03T03:26:00;5.72;;;3.10;;
46723;SDS011;32463;48.298;11.620;2023-04-03T03:28:28;5.47;;;3.17;;
46723;SDS011;32463;48.298;11.620;2023-04-03T03:30:55;5.78;;;3.20;;
46723;SDS011;32463;48.298;11.620;2023-04-03T03:33:23;5.28;;;3.20;;
46723;SDS011;32463;48.298;11.620;2023-04-03T03:35:51;6.18;;;3.05;;
46723;SDS011;32463;48.298;11.620;2023-04-03T03:38:18;5.45;;;3.17;;
46723;SDS011;32463;48.298;11.620;2023-04-03T03:40:48;4.68;;;3.10;;
46723;SDS011;32463;48.298;11.620;2023-04-03T03:43:16;6.43;;;3.10;;
46723;SDS011;32463;48.298;11.620;2023-04-03T03:45:43;5.88;;;3.50;;
46723;SDS011;32463;48.298;11.620;2023-04-03T03:48:10;4.70;;;3.20;;
46723;SDS011;32463;48.298;11.620;2023-04-03T03:50:37;6.60;;;3.40;;
46723;SDS011;32463;48.298;11.620;2023-04-03T03:53:03;6.35;;;3.20;;
46723;SDS011;32463;48.298;11.620;2023-04-03T03:55:30;5.40;;;3.30;;
46723;SDS011;32463;48.298;11.620;2023-04-03T03:57:56;4.93;;;3.50;;
46723;SDS011;32463;48.298;11.620;2023-04-03T04:00:23;5.82;;;3.25;;
46723;SDS011;32463;48.298;11.620;2023-04-03T04:02:49;6.63;;;3.10;;
46723;SDS011;32463;48.298;11.620;2023-04-03T04:05:16;6.90;;;3.55;;
46723;SDS011;32463;48.298;11.620;2023-04-03T04:07:42;6.28;;;3.15;;
46723;SDS011;32463;48.298;11.620;2023-04-03T04:10:09;6.05;;;3.30;;
46723;SDS011;32463;48.298;11.620;2023-04-03T04:12:36;4.75;;;3.25;;
46723;SDS011;32463;48.298;11.620;2023-04-03T04:15:02;7.82;;;3.60;;
46723;SDS011;32463;48.298;11.620;2023-04-03T04:17:29;5.15;;;3.60;;
46723;SDS011;32463;48.298;11.620;2023-04-03T04:19:55;5.68;;;3.70;;
46723;SDS011;32463;48.298;11.620;2023-04-03T04:22:22;6.03;;;3.53;;
46723;SDS011;32463;48.298;11.620;2023-04-03T04:24:48;8.25;;;3.88;;
46723;SDS011;32463;48.298;11.620;2023-04-03T04:27:15;6.38;;;4.03;;
46723;SDS011;32463;48.298;11.620;2023-04-03T04:29:41;6.53;;;3.47;;
46723;SDS011;32463;48.298;11.620;2023-04-03T04:32:08;4.90;;;3.45;;
46723;SDS011;32463;48.298;11.620;2023-04-03T04:34:35;5.47;;;3.03;;
46723;SDS011;32463;48.298;11.620;2023-04-03T04:37:01;5.07;;;3.63;;
46723;SDS011;32463;48.298;11.620;2023-04-03T04:39:28;5.60;;;3.58;;
46723;SDS011;32463;48.298;11.620;2023-04-03T04:41:54;4.68;;;3.30;;
46723;SDS011;32463;48.298;11.620;2023-04-03T04:44:20;6.60;;;3.72;;
46723;SDS011;32463;48.298;11.620;2023-04-03T04:46:47;6.88;;;3.65;;
46723;SDS011;32463;48.298;11.620;2023-04-03T04:49:13;4.97;;;3.47;;
46723;SDS011;32463;48.298;11.620;2023-04-03T04:51:40;8.07;;;4.00;;
46723;SDS011;32463;48.298;11.620;2023-04-03T04:54:06;7.30;;;3.70;;
46723;SDS011;32463;48.298;11.620;2023-04-03T04:56:33;6.60;;;3.78;;
46723;SDS011;32463;48.298;11.620;2023-04-03T04:58:59;8.20;;;4.00;;
46723;SDS011;32463;48.298;11.620;2023-04-03T05:01:25;6.18;;;3.70;;
46723;SDS011;32463;48.298;11.620;2023-04-03T05:03:52;6.22;;;4.07;;
46723;SDS011;32463;48.298;11.620;2023-04-03T05:06:18;6.57;;;3.95;;
46723;SDS011;32463;48.298;11.620;2023-04-03T05:08:45;6.63;;;3.60;;
46723;SDS011;32463;48.298;11.620;2023-04-03T05:11:11;8.13;;;4.20;;
46723;SDS011;32463;48.298;11.620;2023-04-03T05:13:38;7.90;;;4.07;;
46723;SDS011;32463;48.298;11.620;2023-04-03T05:16:05;8.50;;;3.90;;
46723;SDS011;32463;48.298;11.620;2023-04-03T05:18:31;5.88;;;3.85;;
46723;SDS011;32463;48.298;11.620;2023-04-03T05:20:58;4.88;;;3.28;;
46723;SDS011;32463;48.298;11.620;2023-04-03T05:23:24;7.93;;;3.47;;
46723;SDS011;32463;48.298;11.620;2023-04-03T05:25:51;6.07;;;3.67;;
46723;SDS011;32463;48.298;11.620;2023-04-03T05:28:17;6.97;;;3.80;;
46723;SDS011;32463;48.298;11.620;2023-04-03T05:30:44;7.85;;;3.83;;
46723;SDS011;32463;48.298;11.620;2023-04-03T05:33:10;10.65;;;5.20;;
46723;SDS011;32463;48.298;11.620;2023-04-03T05:35:37;8.75;;;4.20;;
46723;SDS011;32463;48.298;11.620;2023-04-03T05:38:06;6.20;;;3.80;;
46723;SDS011;32463;48.298;11.620;2023-04-03T05:40:34;7.68;;;4.07;;
46723;SDS011;32463;48.298;11.620;2023-04-03T05:43:02;7.10;;;4.30;;
46723;SDS011;32463;48.298;11.620;2023-04-03T05:45:29;6.57;;;4.10;;
46723;SDS011;32463;48.298;11.620;2023-04-03T05:47:55;5.90;;;4.10;;
46723;SDS011;32463;48.298;11.620;2023-04-03T05:50:22;6.78;;;4.05;;
46723;SDS011;32463;48.298;11.620;2023-04-03T05:52:49;11.55;;;4.75;;
46723;SDS011;32463;48.298;11.620;2023-04-03T05:55:19;7.30;;;4.13;;
46723;SDS011;32463;48.298;11.620;2023-04-03T05:57:45;6.28;;;3.63;;
46723;SDS011;32463;48.298;11.620;2023-04-03T06:00:15;6.88;;;4.18;;
46723;SDS011;32463;48.298;11.620;2023-04-03T06:02:42;7.30;;;4.07;;
46723;SDS011;32463;48.298;11.620;2023-04-03T06:05:09;5.80;;;3.80;;
46723;SDS011;32463;48.298;11.620;2023-04-03T06:07:36;5.53;;;3.78;;
46723;SDS011;32463;48.298;11.620;2023-04-03T06:10:03;6.38;;;3.83;;
46723;SDS011;32463;48.298;11.620;2023-04-03T06:12:30;7.93;;;4.32;;
46723;SDS011;32463;48.298;11.620;2023-04-03T06:14:57;5.25;;;3.85;;
46723;SDS011;32463;48.298;11.620;2023-04-03T06:17:24;7.78;;;4.00;;
46723;SDS011;32463;48.298;11.620;2023-04-03T06:19:51;7.07;;;4.07;;
46723;SDS011;32463;48.298;11.620;2023-04-03T06:22:18;5.63;;;3.60;;
46723;SDS011;32463;48.298;11.620;2023-04-03T06:24:45;6.80;;;3.53;;
46723;SDS011;32463;48.298;11.620;2023-04-03T06:27:11;6.65;;;4.03;;
46723;SDS011;32463;48.298;11.620;2023-04-03T06:29:38;6.57;;;4.38;;
46723;SDS011;32463;48.298;11.620;2023-04-03T06:32:05;5.82;;;3.80;;
46723;SDS011;32463;48.298;11.620;2023-04-03T06:34:32;8.20;;;4.10;;
46723;SDS011;32463;48.298;11.620;2023-04-03T06:36:58;6.22;;;4.55;;
46723;SDS011;32463;48.298;11.620;2023-04-03T06:39:25;8.55;;;4.15;;
46723;SDS011;32463;48.298;11.620;2023-04-03T06:41:52;8.50;;;3.95;;
46723;SDS011;32463;48.298;11.620;2023-04-03T06:44:18;5.68;;;3.97;;
46723;SDS011;32463;48.298;11.620;2023-04-03T06:46:45;7.47;;;4.28;;
46723;SDS011;32463;48.298;11.620;2023-04-03T06:49:11;6.57;;;4.05;;
46723;SDS011;32463;48.298;11.620;2023-04-03T06:51:38;7.35;;;4.43;;
46723;SDS011;32463;48.298;11.620;2023-04-03T06:54:06;9.93;;;5.30;;
46723;SDS011;32463;48.298;11.620;2023-04-03T06:56:33;8.63;;;5.07;;
46723;SDS011;32463;48.298;11.620;2023-04-03T06:59:00;8.98;;;4.40;;
46723;SDS011;32463;48.298;11.620;2023-04-03T07:01:27;6.47;;;4.18;;
46723;SDS011;32463;48.298;11.620;2023-04-03T07:03:55;6.95;;;4.43;;
46723;SDS011;32463;48.298;11.620;2023-04-03T07:06:22;6.50;;;4.38;;
46723;SDS011;32463;48.298;11.620;2023-04-03T07:08:51;6.63;;;4.40;;
46723;SDS011;32463;48.298;11.620;2023-04-03T07:11:18;8.02;;;4.72;;
46723;SDS011;32463;48.298;11.620;2023-04-03T07:13:45;10.05;;;5.28;;
46723;SDS011;32463;48.298;11.620;2023-04-03T07:16:11;7.90;;;4.97;;
46723;SDS011;32463;48.298;11.620;2023-04-03T07:18:38;7.88;;;4.80;;
46723;SDS011;32463;48.298;11.620;2023-04-03T07:21:05;8.10;;;4.90;;
46723;SDS011;32463;48.298;11.620;2023-04-03T07:23:31;7.53;;;4.82;;
46723;SDS011;32463;48.298;11.620;2023-04-03T07:25:58;7.72;;;5.30;;
46723;SDS011;32463;48.298;11.620;2023-04-03T07:28:24;8.95;;;5.32;;
46723;SDS011;32463;48.298;11.620;2023-04-03T07:30:52;6.63;;;4.63;;
46723;SDS011;32463;48.298;11.620;2023-04-03T07:33:20;7.45;;;4.80;;
46723;SDS011;32463;48.298;11.620;2023-04-03T07:35:48;8.23;;;4.65;;
46723;SDS011;32463;48.298;11.620;2023-04-03T07:38:15;8.18;;;4.90;;
46723;SDS011;32463;48.298;11.620;2023-04-03T07:40:46;8.27;;;4.82;;
46723;SDS011;32463;48.298;11.620;2023-04-03T07:43:14;8.52;;;4.40;;
46723;SDS011;32463;48.298;11.620;2023-04-03T07:45:41;10.82;;;5.43;;
46723;SDS011;32463;48.298;11.620;2023-04-03T07:48:08;10.60;;;5.95;;
46723;SDS011;32463;48.298;11.620;2023-04-03T07:50:35;8.23;;;5.15;;
46723;SDS011;32463;48.298;11.620;2023-04-03T07:53:02;8.18;;;4.18;;
46723;SDS011;32463;48.298;11.620;2023-04-03T07:55:29;6.38;;;4.60;;
46723;SDS011;32463;48.298;11.620;2023-04-03T07:57:58;7.60;;;4.90;;
46723;SDS011;32463;48.298;11.620;2023-04-03T08:00:24;8.43;;;4.80;;
46723;SDS011;32463;48.298;11.620;2023-04-03T08:02:51;8.57;;;4.90;;
46723;SDS011;32463;48.298;11.620;2023-04-03T08:05:18;8.30;;;4.80;;
46723;SDS011;32463;48.298;11.620;2023-04-03T08:07:47;7.03;;;4.10;;
46723;SDS011;32463;48.298;11.620;2023-04-03T08:10:14;8.18;;;4.28;;
46723;SDS011;32463;48.298;11.620;2023-04-03T08:12:41;7.28;;;4.55;;
46723;SDS011;32463;48.298;11.620;2023-04-03T08:15:08;10.20;;;4.97;;
46723;SDS011;32463;48.298;11.620;2023-04-03T08:17:35;8.90;;;5.03;;
46723;SDS011;32463;48.298;11.620;2023-04-03T08:20:03;8.68;;;4.93;;
46723;SDS011;32463;48.298;11.620;2023-04-03T08:22:33;7.78;;;5.03;;
46723;SDS011;32463;48.298;11.620;2023-04-03T08:25:00;9.27;;;4.70;;
46723;SDS011;32463;48.298;11.620;2023-04-03T08:27:27;7.50;;;4.07;;
46723;SDS011;32463;48.298;11.620;2023-04-03T08:29:55;10.85;;;5.10;;
46723;SDS011;32463;48.298;11.620;2023-04-03T08:32:22;7.78;;;4.75;;
46723;SDS011;32463;48.298;11.620;2023-04-03T08:34:49;12.43;;;4.93;;
46723;SDS011;32463;48.298;11.620;2023-04-03T08:37:15;7.10;;;4.45;;
46723;SDS011;32463;48.298;11.620;2023-04-03T08:39:42;7.10;;;4.25;;
46723;SDS011;32463;48.298;11.620;2023-04-03T08:42:19;7.55;;;4.63;;
46723;SDS011;32463;48.298;11.620;2023-04-03T08:48:04;8.18;;;4.22;;
46723;SDS011;32463;48.298;11.620;2023-04-03T08:50:47;8.18;;;4.10;;
46723;SDS011;32463;48.298;11.620;2023-04-03T08:53:19;6.25;;;4.10;;
46723;SDS011;32463;48.298;11.620;2023-04-03T08:55:49;7.30;;;5.00;;
46723;SDS011;32463;48.298;11.620;2023-04-03T08:58:21;6.53;;;4.45;;
46723;SDS011;32463;48.298;11.620;2023-04-03T09:00:51;8.75;;;3.80;;
46723;SDS011;32463;48.298;11.620;2023-04-03T09:03:22;7.97;;;4.22;;
46723;SDS011;32463;48.298;11.620;2023-04-03T09:08:31;7.18;;;4.13;;
46723;SDS011;32463;48.298;11.620;2023-04-03T09:11:21;6.15;;;3.60;;
46723;SDS011;32463;48.298;11.620;2023-04-03T09:16:54;6.18;;;3.58;;
46723;SDS011;32463;48.298;11.620;2023-04-03T09:19:33;6.28;;;3.92;;
46723;SDS011;32463;48.298;11.620;2023-04-03T09:22:09;6.43;;;3.70;;
46723;SDS011;32463;48.298;11.620;2023-04-03T09:24:45;5.80;;;3.35;;
46723;SDS011;32463;48.298;11.620;2023-04-03T09:27:16;6.32;;;4.00;;
46723;SDS011;32463;48.298;11.620;2023-04-03T09:29:43;8.68;;;3.92;;
46723;SDS011;32463;48.298;11.620;2023-04-03T09:32:18;9.05;;;4.10;;
46723;SDS011;32463;48.298;11.620;2023-04-03T09:37:11;6.22;;;3.70;;
46723;SDS011;32463;48.298;11.620;2023-04-03T09:40:03;6.82;;;3.88;;
46723;SDS011;32463;48.298;11.620;2023-04-03T09:42:31;5.65;;;3.70;;
46723;SDS011;32463;48.298;11.620;2023-04-03T09:44:59;5.70;;;3.88;;
46723;SDS011;32463;48.298;11.620;2023-04-03T09:47:29;6.50;;;3.75;;
46723;SDS011;32463;48.298;11.620;2023-04-03T09:50:09;8.95;;;3.72;;
46723;SDS011;32463;48.298;11.620;2023-04-03T09:52:46;5.65;;;3.42;;
46723;SDS011;32463;48.298;11.620;2023-04-03T09:55:15;5.82;;;3.17;;
46723;SDS011;32463;48.298;11.620;2023-04-03T09:57:46;8.00;;;2.93;;
46723;SDS011;32463;48.298;11.620;2023-04-03T10:00:35;11.02;;;3.67;;
46723;SDS011;32463;48.298;11.620;2023-04-03T10:03:04;4.50;;;2.70;;
46723;SDS011;32463;48.298;11.620;2023-04-03T10:08:10;5.65;;;2.95;;
46723;SDS011;32463;48.298;11.620;2023-04-03T10:10:44;5.13;;;2.67;;
46723;SDS011;32463;48.298;11.620;2023-04-03T10:15:46;3.85;;;2.45;;
46723;SDS011;32463;48.298;11.620;2023-04-03T10:21:57;5.47;;;2.40;;
46723;SDS011;32463;48.298;11.620;2023-04-03T10:26:50;5.10;;;2.22;;
46723;SDS011;32463;48.298;11.620;2023-04-03T10:34:37;5.20;;;2.85;;
46723;SDS011;32463;48.298;11.620;2023-04-03T10:37:29;3.37;;;2.00;;
46723;SDS011;32463;48.298;11.620;2023-04-03T10:40:12;3.92;;;2.10;;
46723;SDS011;32463;48.298;11.620;2023-04-03T10:45:28;5.05;;;2.45;;
46723;SDS011;32463;48.298;11.620;2023-04-03T10:51:33;5.65;;;2.28;;
46723;SDS011;32463;48.298;11.620;2023-04-03T10:54:08;4.05;;;2.28;;
46723;SDS011;32463;48.298;11.620;2023-04-03T10:56:48;3.45;;;1.80;;
46723;SDS011;32463;48.298;11.620;2023-04-03T11:01:56;6.22;;;1.77;;
46723;SDS011;32463;48.298;11.620;2023-04-03T11:04:27;3.55;;;1.83;;
46723;SDS011;32463;48.298;11.620;2023-04-03T11:07:01;3.28;;;1.60;;
46723;SDS011;32463;48.298;11.620;2023-04-03T11:09:37;3.03;;;1.50;;
46723;SDS011;32463;48.298;11.620;2023-04-03T11:12:16;8.98;;;1.75;;
46723;SDS011;32463;48.298;11.620;2023-04-03T11:15:02;2.53;;;1.33;;
46723;SDS011;32463;48.298;11.620;2023-04-03T11:20:14;4.50;;;1.65;;
46723;SDS011;32463;48.298;11.620;2023-04-03T11:22:47;4.95;;;1.50;;
46723;SDS011;32463;48.298;11.620;2023-04-03T11:25:19;3.65;;;1.80;;
46723;SDS011;32463;48.298;11.620;2023-04-03T11:28:04;3.50;;;1.70;;
46723;SDS011;32463;48.298;11.620;2023-04-03T11:33:35;3.85;;;2.00;;
46723;SDS011;32463;48.298;11.620;2023-04-03T11:36:25;6.75;;;1.98;;
46723;SDS011;32463;48.298;11.620;2023-04-03T11:38:54;3.30;;;1.60;;
46723;SDS011;32463;48.298;11.620;2023-04-03T11:41:30;3.08;;;1.60;;
46723;SDS011;32463;48.298;11.620;2023-04-03T11:44:03;5.47;;;2.17;;
46723;SDS011;32463;48.298;11.620;2023-04-03T11:46:51;4.38;;;1.50;;
46723;SDS011;32463;48.298;11.620;2023-04-03T12:05:52;4.07;;;1.90;;
46723;SDS011;32463;48.298;11.620;2023-04-03T12:30:20;3.88;;;1.98;;
46723;SDS011;32463;48.298;11.620;2023-04-03T12:32:51;3.42;;;1.80;;
46723;SDS011;32463;48.298;11.620;2023-04-03T12:38:16;3.50;;;1.75;;
46723;SDS011;32463;48.298;11.620;2023-04-03T12:46:45;3.60;;;2.13;;
46723;SDS011;32463;48.298;11.620;2023-04-03T12:51:59;5.38;;;2.05;;
46723;SDS011;32463;48.298;11.620;2023-04-03T12:54:36;4.18;;;1.85;;
46723;SDS011;32463;48.298;11.620;2023-04-03T12:59:49;4.63;;;1.80;;
46723;SDS011;32463;48.298;11.620;2023-04-03T13:02:21;4.20;;;1.90;;
46723;SDS011;32463;48.298;11.620;2023-04-03T13:05:04;4.82;;;1.90;;
46723;SDS011;32463;48.298;11.620;2023-04-03T13:07:37;3.35;;;2.05;;
46723;SDS011;32463;48.298;11.620;2023-04-03T13:12:44;4.43;;;1.92;;
46723;SDS011;32463;48.298;11.620;2023-04-03T13:15:17;4.95;;;2.40;;
46723;SDS011;32463;48.298;11.620;2023-04-03T13:17:55;4.70;;;1.52;;
46723;SDS011;32463;48.298;11.620;2023-04-03T13:20:26;6.25;;;1.90;;
46723;SDS011;32463;48.298;11.620;2023-04-03T13:25:33;4.22;;;1.80;;
46723;SDS011;32463;48.298;11.620;2023-04-03T13:28:06;6.60;;;1.55;;
46723;SDS011;32463;48.298;11.620;2023-04-03T13:30:38;4.60;;;2.40;;
46723;SDS011;32463;48.298;11.620;2023-04-03T13:33:19;5.95;;;2.25;;
46723;SDS011;32463;48.298;11.620;2023-04-03T13:35:54;5.47;;;2.07;;
46723;SDS011;32463;48.298;11.620;2023-04-03T13:38:24;5.30;;;2.30;;
46723;SDS011;32463;48.298;11.620;2023-04-03T13:40:56;3.75;;;1.52;;
46723;SDS011;32463;48.298;11.620;2023-04-03T13:43:26;3.50;;;1.80;;
46723;SDS011;32463;48.298;11.620;2023-04-03T13:48:36;3.13;;;1.65;;
46723;SDS011;32463;48.298;11.620;2023-04-03T13:53:47;3.58;;;1.45;;
46723;SDS011;32463;48.298;11.620;2023-04-03T13:56:25;3.00;;;1.50;;
46723;SDS011;32463;48.298;11.620;2023-04-03T13:59:20;3.15;;;1.70;;
46723;SDS011;32463;48.298;11.620;2023-04-03T14:04:22;1.77;;;1.10;;
46723;SDS011;32463;48.298;11.620;2023-04-03T14:06:52;3.53;;;1.50;;
46723;SDS011;32463;48.298;11.620;2023-04-03T14:09:20;2.63;;;1.17;;
46723;SDS011;32463;48.298;11.620;2023-04-03T14:11:48;3.58;;;1.40;;
46723;SDS011;32463;48.298;11.620;2023-04-03T14:14:19;2.85;;;1.30;;
46723;SDS011;32463;48.298;11.620;2023-04-03T14:16:52;4.18;;;1.30;;
46723;SDS011;32463;48.298;11.620;2023-04-03T14:19:22;2.80;;;1.30;;
46723;SDS011;32463;48.298;11.620;2023-04-03T14:21:50;3.42;;;1.58;;
46723;SDS011;32463;48.298;11.620;2023-04-03T14:24:18;3.88;;;1.55;;
46723;SDS011;32463;48.298;11.620;2023-04-03T14:26:47;3.45;;;1.30;;
46723;SDS011;32463;48.298;11.620;2023-04-03T14:29:14;2.13;;;1.02;;
46723;SDS011;32463;48.298;11.620;2023-04-03T14:31:42;3.15;;;1.20;;
46723;SDS011;32463;48.298;11.620;2023-04-03T14:34:11;3.15;;;1.13;;
46723;SDS011;32463;48.298;11.620;2023-04-03T14:36:38;2.95;;;1.02;;
46723;SDS011;32463;48.298;11.620;2023-04-03T14:39:07;2.40;;;1.13;;
46723;SDS011;32463;48.298;11.620;2023-04-03T14:41:36;4.38;;;1.67;;
46723;SDS011;32463;48.298;11.620;2023-04-03T14:44:03;2.08;;;1.17;;
46723;SDS011;32463;48.298;11.620;2023-04-03T14:46:31;3.15;;;1.63;;
46723;SDS011;32463;48.298;11.620;2023-04-03T14:49:00;2.92;;;1.27;;
46723;SDS011;32463;48.298;11.620;2023-04-03T14:51:28;2.45;;;1.20;;
46723;SDS011;32463;48.298;11.620;2023-04-03T14:53:54;3.83;;;1.50;;
46723;SDS011;32463;48.298;11.620;2023-04-03T14:56:22;2.10;;;1.13;;
46723;SDS011;32463;48.298;11.620;2023-04-03T14:58:52;3.00;;;1.60;;
46723;SDS011;32463;48.298;11.620;2023-04-03T15:01:22;3.53;;;1.33;;
46723;SDS011;32463;48.298;11.620;2023-04-03T15:03:49;2.47;;;1.10;;
46723;SDS011;32463;48.298;11.620;2023-04-03T15:06:16;2.60;;;1.30;;
46723;SDS011;32463;48.298;11.620;2023-04-03T15:08:43;3.40;;;1.50;;
46723;SDS011;32463;48.298;11.620;2023-04-03T15:11:12;4.13;;;1.58;;
46723;SDS011;32463;48.298;11.620;2023-04-03T15:13:39;3.80;;;1.42;;
46723;SDS011;32463;48.298;11.620;2023-04-03T15:16:16;4.65;;;1.85;;
46723;SDS011;32463;48.298;11.620;2023-04-03T15:18:45;2.85;;;1.67;;
46723;SDS011;32463;48.298;11.620;2023-04-03T15:21:12;4.72;;;2.33;;
46723;SDS011;32463;48.298;11.620;2023-04-03T15:23:40;2.90;;;1.52;;
46723;SDS011;32463;48.298;11.620;2023-04-03T15:26:07;2.55;;;1.45;;
46723;SDS011;32463;48.298;11.620;2023-04-03T15:28:35;8.90;;;3.67;;
46723;SDS011;32463;48.298;11.620;2023-04-03T15:31:02;3.30;;;1.92;;
46723;SDS011;32463;48.298;11.620;2023-04-03T15:33:29;5.95;;;1.70;;
46723;SDS011;32463;48.298;11.620;2023-04-03T15:35:57;3.25;;;1.40;;
46723;SDS011;32463;48.298;11.620;2023-04-03T15:38:23;4.97;;;1.60;;
46723;SDS011;32463;48.298;11.620;2023-04-03T15:40:50;5.07;;;1.55;;
46723;SDS011;32463;48.298;11.620;2023-04-03T15:43:16;3.78;;;1.45;;
46723;SDS011;32463;48.298;11.620;2023-04-03T15:45:43;4.60;;;1.45;;
46723;SDS011;32463;48.298;11.620;2023-04-03T15:48:11;4.88;;;1.63;;
46723;SDS011;32463;48.298;11.620;2023-04-03T15:50:38;4.13;;;1.48;;
46723;SDS011;32463;48.298;11.620;2023-04-03T15:53:05;3.85;;;1.42;;
46723;SDS011;32463;48.298;11.620;2023-04-03T15:55:32;2.13;;;1.30;;
46723;SDS011;32463;48.298;11.620;2023-04-03T15:58:00;3.78;;;1.50;;
46723;SDS011;32463;48.298;11.620;2023-04-03T16:00:28;3.53;;;1.50;;
46723;SDS011;32463;48.298;11.620;2023-04-03T16:02:56;3.20;;;1.50;;
46723;SDS011;32463;48.298;11.620;2023-04-03T16:05:28;3.88;;;1.63;;
46723;SDS011;32463;48.298;11.620;2023-04-03T16:07:55;3.28;;;1.58;;
46723;SDS011;32463;48.298;11.620;2023-04-03T16:10:23;3.40;;;1.75;;
46723;SDS011;32463;48.298;11.620;2023-04-03T16:12:50;2.83;;;1.50;;
46723;SDS011;32463;48.298;11.620;2023-04-03T16:15:16;4.05;;;1.60;;
46723;SDS011;32463;48.298;11.620;2023-04-03T16:17:43;3.03;;;1.83;;
46723;SDS011;32463;48.298;11.620;2023-04-03T16:20:10;3.05;;;1.70;;
46723;SDS011;32463;48.298;11.620;2023-04-03T16:22:38;4.57;;;1.58;;
46723;SDS011;32463;48.298;11.620;2023-04-03T16:25:06;3.08;;;1.38;;
46723;SDS011;32463;48.298;11.620;2023-04-03T16:27:34;3.10;;;1.83;;
46723;SDS011;32463;48.298;11.620;2023-04-03T16:30:00;3.17;;;1.63;;
46723;SDS011;32463;48.298;11.620;2023-04-03T16:32:28;3.63;;;1.70;;
46723;SDS011;32463;48.298;11.620;2023-04-03T16:34:56;3.45;;;1.90;;
46723;SDS011;32463;48.298;11.620;2023-04-03T16:37:23;4.53;;;1.90;;